sensor_id;sensor_type;location;lat;lon;timestamp;pressure;altitude;pressure_sealevel;temperature;humidity
47710;BME280;33473;51.640;5.892;2023-05-23T08:21:10;102000;;;20.2;44.0
47710;BME280;33473;51.640;5.892;2023-05-23T08:34:29;102000;;;20.7;42.0
47710;BME280;33473;51.640;5.892;2023-05-23T08:47:49;102000;;;21.2;43.0
47710;BME280;33473;51.640;5.892;2023-05-23T09:01:09;102000;;;21.4;42.0
47710;BME280;33473;51.640;5.892;2023-05-23T09:14:28;102100;;;21.2;42.0
47710;BME280;33473;51.640;5.892;2023-05-23T09:27:48;102100;;;21.1;43.0
47710;BME280;33473;51.640;5.892;2023-05-23T09:41:08;102100;;;21.3;41.0
47710;BME280;33473;51.640;5.892;2023-05-23T09:54:27;102100;;;22.0;40.0
47710;BME280;33473;51.640;5.892;2023-05-23T10:07:47;102100;;;21.9;39.0
47710;BME280;33473;51.640;5.892;2023-05-23T10:21:07;102100;;;22.1;40.0
47710;BME280;33473;51.640;5.892;2023-05-23T10:34:26;102100;;;21.7;38.0
47710;BME280;33473;51.640;5.892;2023-05-23T10:47:46;102100;;;22.0;36.0
47710;BME280;33473;51.640;5.892;2023-05-23T11:01:06;102100;;;22.5;35.0
47710;BME280;33473;51.640;5.892;2023-05-23T11:14:26;102100;;;22.9;35.0
47710;BME280;33473;51.640;5.892;2023-05-23T11:27:45;102100;;;24.0;33.0
47710;BME280;33473;51.640;5.892;2023-05-23T11:41:05;102100;;;22.9;35.0
47710;BME280;33473;51.640;5.892;2023-05-23T11:54:25;102100;;;23.9;31.0
47710;BME280;33473;51.640;5.892;2023-05-23T12:07:44;102100;;;23.8;33.0
47710;BME280;33473;51.640;5.892;2023-05-23T12:21:04;102100;;;23.4;32.0
47710;BME280;33473;51.640;5.892;2023-05-23T12:34:24;102100;;;24.0;33.0
47710;BME280;33473;51.640;5.892;2023-05-23T12:47:43;102100;;;23.9;33.0
47710;BME280;33473;51.640;5.892;2023-05-23T13:01:03;102100;;;24.1;33.0
47710;BME280;33473;51.640;5.892;2023-05-23T13:14:23;102100;;;23.5;32.0
47710;BME280;33473;51.640;5.892;2023-05-23T13:27:42;102100;;;23.7;33.0
47710;BME280;33473;51.640;5.892;2023-05-23T13:41:02;102100;;;23.2;34.0
47710;BME280;33473;51.640;5.892;2023-05-23T13:54:22;102100;;;23.3;31.0
47710;BME280;33473;51.640;5.892;2023-05-23T14:07:42;102100;;;23.3;31.0
47710;BME280;33473;51.640;5.892;2023-05-23T14:21:01;102100;;;23.4;31.0
47710;BME280;33473;51.640;5.892;2023-05-23T14:34:21;102100;;;22.4;33.0
47710;BME280;33473;51.640;5.892;2023-05-23T14:47:41;102100;;;22.7;32.0
47710;BME280;33473;51.640;5.892;2023-05-23T15:01:00;102100;;;22.6;32.0
47710;BME280;33473;51.640;5.892;2023-05-23T15:14:20;102100;;;23.0;29.0
47710;BME280;33473;51.640;5.892;2023-05-23T15:27:40;102100;;;22.3;30.0
47710;BME280;33473;51.640;5.892;2023-05-23T15:40:59;102100;;;22.3;32.0
47710;BME280;33473;51.640;5.892;2023-05-23T15:54:19;102100;;;23.0;32.0
47710;BME280;33473;51.640;5.892;2023-05-23T16:07:39;102100;;;23.0;31.0
47710;BME280;33473;51.640;5.892;2023-05-23T16:20:58;102100;;;22.1;31.0
47710;BME280;33473;51.640;5.892;2023-05-23T16:34:18;102100;;;22.0;32.0
47710;BME280;33473;51.640;5.892;2023-05-23T16:47:38;102100;;;21.6;31.0
47710;BME280;33473;51.640;5.892;2023-05-23T17:00:57;102100;;;21.7;32.0
47710;BME280;33473;51.640;5.892;2023-05-23T17:14:17;102100;;;22.2;31.0
47710;BME280;33473;51.640;5.892;2023-05-23T17:27:37;102100;;;22.1;31.0
47710;BME280;33473;51.640;5.892;2023-05-23T17:40:56;102100;;;21.9;32.0
47710;BME280;33473;51.640;5.892;2023-05-23T17:54:16;102100;;;21.8;30.0
47710;BME280;33473;51.640;5.892;2023-05-23T18:07:36;102200;;;21.3;32.0
47710;BME280;33473;51.640;5.892;2023-05-23T18:20:55;102200;;;20.2;32.0
47710;BME280;33473;51.640;5.892;2023-05-23T18:34:15;102200;;;19.5;34.0
47710;BME280;33473;51.640;5.892;2023-05-23T18:47:35;102200;;;19.3;33.0
47710;BME280;33473;51.640;5.892;2023-05-23T19:00:54;102200;;;19.2;34.0
47710;BME280;33473;51.640;5.892;2023-05-23T19:14:14;102200;;;18.4;34.0
47710;BME280;33473;51.640;5.892;2023-05-23T19:27:34;102200;;;18.4;35.0
47710;BME280;33473;51.640;5.892;2023-05-23T19:40:53;102300;;;18.2;36.0
47710;BME280;33473;51.640;5.892;2023-05-23T19:54:13;102300;;;18.0;37.0
47710;BME280;33473;51.640;5.892;2023-05-23T20:07:33;102300;;;17.6;38.0
47710;BME280;33473;51.640;5.892;2023-05-23T20:20:52;102300;;;17.5;38.0
47710;BME280;33473;51.640;5.892;2023-05-23T20:34:12;102300;;;17.3;38.0
47710;BME280;33473;51.640;5.892;2023-05-23T20:47:32;102300;;;17.1;39.0
47710;BME280;33473;51.640;5.892;2023-05-23T21:00:51;102300;;;16.9;39.0
47710;BME280;33473;51.640;5.892;2023-05-23T21:14:11;102300;;;16.8;39.0
47710;BME280;33473;51.640;5.892;2023-05-23T21:27:31;102300;;;16.6;40.0
47710;BME280;33473;51.640;5.892;2023-05-23T21:40:50;102300;;;16.4;41.0
47710;BME280;33473;51.640;5.892;2023-05-23T21:54:10;102300;;;16.2;41.0
47710;BME280;33473;51.640;5.892;2023-05-23T22:07:30;102300;;;15.9;42.0
47710;BME280;33473;51.640;5.892;2023-05-23T22:20:50;102300;;;15.8;42.0
47710;BME280;33473;51.640;5.892;2023-05-23T22:34:09;102300;;;15.6;44.0
47710;BME280;33473;51.640;5.892;2023-05-23T22:47:29;102300;;;15.4;43.0
47710;BME280;33473;51.640;5.892;2023-05-23T23:00:49;102300;;;15.2;45.0
47710;BME280;33473;51.640;5.892;2023-05-23T23:14:08;102300;;;15.0;45.0
47710;BME280;33473;51.640;5.892;2023-05-23T23:27:28;102300;;;14.8;45.0
47710;BME280;33473;51.640;5.892;2023-05-23T23:40:48;102300;;;14.6;45.0
47710;BME280;33473;51.640;5.892;2023-05-23T23:54:07;102300;;;14.4;45.0
